sensor_id;sensor_type;location;lat;lon;timestamp;P1;durP1;ratioP1;P2;durP2;ratioP2
4051;SDS011;2040;50.924;11.604;2022-08-07T00:00:08;4.63;;;1.50;;
4051;SDS011;2040;50.924;11.604;2022-08-07T00:02:35;2.67;;;1.43;;
4051;SDS011;2040;50.924;11.604;2022-08-07T00:05:00;3.97;;;1.60;;
4051;SDS011;2040;50.924;11.604;2022-08-07T00:07:26;4.70;;;2.00;;
4051;SDS011;2040;50.924;11.604;2022-08-07T00:09:51;3.47;;;2.07;;
4051;SDS011;2040;50.924;11.604;2022-08-07T00:12:17;2.10;;;1.37;;
4051;SDS011;2040;50.924;11.604;2022-08-07T00:14:42;3.43;;;1.67;;
4051;SDS011;2040;50.924;11.604;2022-08-07T00:17:08;2.23;;;1.50;;
4051;SDS011;2040;50.924;11.604;2022-08-07T00:19:34;2.60;;;1.47;;
4051;SDS011;2040;50.924;11.604;2022-08-07T00:22:00;2.47;;;1.30;;
4051;SDS011;2040;50.924;11.604;2022-08-07T00:24:25;1.53;;;1.20;;
4051;SDS011;2040;50.924;11.604;2022-08-07T00:26:51;1.97;;;1.17;;
4051;SDS011;2040;50.924;11.604;2022-08-07T00:29:17;5.10;;;1.50;;
4051;SDS011;2040;50.924;11.604;2022-08-07T00:31:43;2.00;;;1.27;;
4051;SDS011;2040;50.924;11.604;2022-08-07T00:34:09;2.47;;;1.10;;
4051;SDS011;2040;50.924;11.604;2022-08-07T00:36:35;2.10;;;1.23;;
4051;SDS011;2040;50.924;11.604;2022-08-07T00:39:02;1.50;;;1.30;;
4051;SDS011;2040;50.924;11.604;2022-08-07T00:41:29;1.53;;;1.43;;
4051;SDS011;2040;50.924;11.604;2022-08-07T00:43:57;2.27;;;0.90;;
4051;SDS011;2040;50.924;11.604;2022-08-07T00:46:23;2.30;;;1.70;;
4051;SDS011;2040;50.924;11.604;2022-08-07T00:48:48;2.33;;;2.13;;
4051;SDS011;2040;50.924;11.604;2022-08-07T00:51:14;3.20;;;1.40;;
4051;SDS011;2040;50.924;11.604;2022-08-07T00:53:39;2.00;;;1.63;;
4051;SDS011;2040;50.924;11.604;2022-08-07T00:56:06;3.07;;;1.37;;
4051;SDS011;2040;50.924;11.604;2022-08-07T00:58:32;1.57;;;1.47;;
4051;SDS011;2040;50.924;11.604;2022-08-07T01:00:57;1.53;;;1.43;;
4051;SDS011;2040;50.924;11.604;2022-08-07T01:03:23;1.37;;;1.23;;
4051;SDS011;2040;50.924;11.604;2022-08-07T01:05:49;2.33;;;1.50;;
4051;SDS011;2040;50.924;11.604;2022-08-07T01:08:16;2.30;;;1.47;;
4051;SDS011;2040;50.924;11.604;2022-08-07T01:10:42;2.50;;;1.30;;
4051;SDS011;2040;50.924;11.604;2022-08-07T01:13:08;1.97;;;1.03;;
4051;SDS011;2040;50.924;11.604;2022-08-07T01:15:33;2.70;;;1.30;;
4051;SDS011;2040;50.924;11.604;2022-08-07T01:18:00;9.13;;;1.80;;
4051;SDS011;2040;50.924;11.604;2022-08-07T01:20:33;3.73;;;2.17;;
4051;SDS011;2040;50.924;11.604;2022-08-07T01:23:05;2.50;;;1.80;;
4051;SDS011;2040;50.924;11.604;2022-08-07T01:25:30;2.43;;;1.70;;
4051;SDS011;2040;50.924;11.604;2022-08-07T01:27:57;1.73;;;1.10;;
4051;SDS011;2040;50.924;11.604;2022-08-07T01:30:23;3.70;;;1.80;;
4051;SDS011;2040;50.924;11.604;2022-08-07T01:32:50;3.50;;;2.23;;
4051;SDS011;2040;50.924;11.604;2022-08-07T01:35:16;5.00;;;2.20;;
4051;SDS011;2040;50.924;11.604;2022-08-07T01:37:41;2.10;;;1.50;;
4051;SDS011;2040;50.924;11.604;2022-08-07T01:40:07;2.30;;;1.80;;
4051;SDS011;2040;50.924;11.604;2022-08-07T01:42:34;2.63;;;1.50;;
4051;SDS011;2040;50.924;11.604;2022-08-07T01:45:01;3.03;;;1.50;;
4051;SDS011;2040;50.924;11.604;2022-08-07T01:47:28;1.80;;;1.43;;
4051;SDS011;2040;50.924;11.604;2022-08-07T01:49:54;8.23;;;1.50;;
4051;SDS011;2040;50.924;11.604;2022-08-07T01:52:20;1.53;;;1.40;;
4051;SDS011;2040;50.924;11.604;2022-08-07T01:54:47;2.00;;;1.60;;
4051;SDS011;2040;50.924;11.604;2022-08-07T01:57:17;1.20;;;1.10;;
4051;SDS011;2040;50.924;11.604;2022-08-07T02:02:44;1.47;;;1.30;;
4051;SDS011;2040;50.924;11.604;2022-08-07T02:05:20;2.70;;;1.53;;
4051;SDS011;2040;50.924;11.604;2022-08-07T02:07:51;1.47;;;1.10;;
4051;SDS011;2040;50.924;11.604;2022-08-07T02:10:21;4.77;;;1.30;;
4051;SDS011;2040;50.924;11.604;2022-08-07T02:12:48;1.40;;;1.30;;
4051;SDS011;2040;50.924;11.604;2022-08-07T02:15:18;4.10;;;1.40;;
4051;SDS011;2040;50.924;11.604;2022-08-07T02:17:46;3.07;;;1.33;;
4051;SDS011;2040;50.924;11.604;2022-08-07T02:20:13;1.30;;;1.20;;
4051;SDS011;2040;50.924;11.604;2022-08-07T02:22:42;3.03;;;1.23;;
4051;SDS011;2040;50.924;11.604;2022-08-07T02:25:09;1.37;;;1.27;;
4051;SDS011;2040;50.924;11.604;2022-08-07T02:27:37;1.63;;;1.10;;
4051;SDS011;2040;50.924;11.604;2022-08-07T02:30:04;1.27;;;1.17;;
4051;SDS011;2040;50.924;11.604;2022-08-07T02:32:30;1.30;;;1.20;;
4051;SDS011;2040;50.924;11.604;2022-08-07T02:34:57;1.37;;;1.27;;
4051;SDS011;2040;50.924;11.604;2022-08-07T02:37:24;2.80;;;1.30;;
4051;SDS011;2040;50.924;11.604;2022-08-07T02:39:51;1.37;;;1.07;;
4051;SDS011;2040;50.924;11.604;2022-08-07T02:42:18;1.63;;;1.27;;
4051;SDS011;2040;50.924;11.604;2022-08-07T02:44:45;1.60;;;1.13;;
4051;SDS011;2040;50.924;11.604;2022-08-07T02:47:14;2.10;;;1.20;;
4051;SDS011;2040;50.924;11.604;2022-08-07T02:49:42;1.13;;;1.03;;
4051;SDS011;2040;50.924;11.604;2022-08-07T02:52:08;1.30;;;1.13;;
4051;SDS011;2040;50.924;11.604;2022-08-07T02:54:39;1.57;;;1.20;;
4051;SDS011;2040;50.924;11.604;2022-08-07T02:57:05;1.90;;;1.30;;
4051;SDS011;2040;50.924;11.604;2022-08-07T02:59:35;2.27;;;1.77;;
4051;SDS011;2040;50.924;11.604;2022-08-07T03:02:02;2.87;;;1.37;;
4051;SDS011;2040;50.924;11.604;2022-08-07T03:04:28;1.80;;;1.60;;
4051;SDS011;2040;50.924;11.604;2022-08-07T03:06:55;3.23;;;1.33;;
4051;SDS011;2040;50.924;11.604;2022-08-07T03:09:21;3.63;;;1.40;;
4051;SDS011;2040;50.924;11.604;2022-08-07T03:11:47;3.17;;;1.60;;
4051;SDS011;2040;50.924;11.604;2022-08-07T03:14:14;4.73;;;1.50;;
4051;SDS011;2040;50.924;11.604;2022-08-07T03:16:41;1.93;;;1.30;;
4051;SDS011;2040;50.924;11.604;2022-08-07T03:19:07;2.60;;;1.50;;
4051;SDS011;2040;50.924;11.604;2022-08-07T03:21:33;1.77;;;1.53;;
4051;SDS011;2040;50.924;11.604;2022-08-07T03:23:59;3.50;;;1.70;;
4051;SDS011;2040;50.924;11.604;2022-08-07T03:26:26;1.30;;;1.20;;
4051;SDS011;2040;50.924;11.604;2022-08-07T03:28:54;2.00;;;1.80;;
4051;SDS011;2040;50.924;11.604;2022-08-07T03:31:21;1.67;;;1.17;;
4051;SDS011;2040;50.924;11.604;2022-08-07T03:33:50;2.10;;;1.37;;
4051;SDS011;2040;50.924;11.604;2022-08-07T03:36:19;2.30;;;1.47;;
4051;SDS011;2040;50.924;11.604;2022-08-07T03:38:47;3.30;;;1.63;;
4051;SDS011;2040;50.924;11.604;2022-08-07T03:41:14;1.83;;;1.20;;
4051;SDS011;2040;50.924;11.604;2022-08-07T03:43:40;2.50;;;1.77;;
4051;SDS011;2040;50.924;11.604;2022-08-07T03:46:07;1.63;;;1.37;;
4051;SDS011;2040;50.924;11.604;2022-08-07T03:48:33;2.77;;;1.40;;
4051;SDS011;2040;50.924;11.604;2022-08-07T03:51:00;3.63;;;1.50;;
4051;SDS011;2040;50.924;11.604;2022-08-07T03:53:27;3.90;;;1.73;;
4051;SDS011;2040;50.924;11.604;2022-08-07T03:55:53;1.33;;;1.23;;
4051;SDS011;2040;50.924;11.604;2022-08-07T03:58:20;1.60;;;1.37;;
4051;SDS011;2040;50.924;11.604;2022-08-07T04:00:48;1.43;;;1.30;;
4051;SDS011;2040;50.924;11.604;2022-08-07T04:03:16;2.30;;;1.43;;
4051;SDS011;2040;50.924;11.604;2022-08-07T04:05:42;1.63;;;1.10;;
4051;SDS011;2040;50.924;11.604;2022-08-07T04:08:12;1.93;;;1.20;;
4051;SDS011;2040;50.924;11.604;2022-08-07T04:10:39;1.10;;;1.00;;
4051;SDS011;2040;50.924;11.604;2022-08-07T04:13:05;1.20;;;1.10;;
4051;SDS011;2040;50.924;11.604;2022-08-07T04:15:31;1.77;;;1.23;;
4051;SDS011;2040;50.924;11.604;2022-08-07T04:17:58;1.20;;;1.10;;
4051;SDS011;2040;50.924;11.604;2022-08-07T04:20:25;1.87;;;1.10;;
4051;SDS011;2040;50.924;11.604;2022-08-07T04:22:50;1.63;;;1.23;;
4051;SDS011;2040;50.924;11.604;2022-08-07T04:25:17;2.07;;;1.30;;
4051;SDS011;2040;50.924;11.604;2022-08-07T04:27:43;1.63;;;1.30;;
4051;SDS011;2040;50.924;11.604;2022-08-07T04:30:10;1.40;;;1.27;;
4051;SDS011;2040;50.924;11.604;2022-08-07T04:32:36;2.50;;;1.43;;
4051;SDS011;2040;50.924;11.604;2022-08-07T04:35:02;1.57;;;1.20;;
4051;SDS011;2040;50.924;11.604;2022-08-07T04:37:30;4.47;;;1.53;;
4051;SDS011;2040;50.924;11.604;2022-08-07T04:39:56;1.37;;;1.10;;
4051;SDS011;2040;50.924;11.604;2022-08-07T04:42:22;1.20;;;1.10;;
4051;SDS011;2040;50.924;11.604;2022-08-07T04:44:52;1.80;;;1.33;;
4051;SDS011;2040;50.924;11.604;2022-08-07T04:47:21;1.40;;;1.30;;
4051;SDS011;2040;50.924;11.604;2022-08-07T04:50:17;1.00;;;1.00;;
4051;SDS011;2040;50.924;11.604;2022-08-07T04:53:04;2.47;;;1.70;;
4051;SDS011;2040;50.924;11.604;2022-08-07T04:55:49;1.30;;;1.20;;
4051;SDS011;2040;50.924;11.604;2022-08-07T04:58:42;2.00;;;1.30;;
4051;SDS011;2040;50.924;11.604;2022-08-07T05:01:15;2.33;;;1.30;;
4051;SDS011;2040;50.924;11.604;2022-08-07T05:03:50;5.00;;;1.77;;
4051;SDS011;2040;50.924;11.604;2022-08-07T05:06:30;1.63;;;1.40;;
4051;SDS011;2040;50.924;11.604;2022-08-07T05:12:05;1.20;;;1.10;;
4051;SDS011;2040;50.924;11.604;2022-08-07T05:14:38;1.77;;;1.30;;
4051;SDS011;2040;50.924;11.604;2022-08-07T05:17:06;2.17;;;1.57;;
4051;SDS011;2040;50.924;11.604;2022-08-07T05:19:34;5.70;;;1.70;;
4051;SDS011;2040;50.924;11.604;2022-08-07T05:22:04;3.43;;;1.10;;
4051;SDS011;2040;50.924;11.604;2022-08-07T05:24:32;1.83;;;1.73;;
4051;SDS011;2040;50.924;11.604;2022-08-07T05:26:59;2.33;;;1.80;;
4051;SDS011;2040;50.924;11.604;2022-08-07T05:29:26;2.50;;;1.60;;
4051;SDS011;2040;50.924;11.604;2022-08-07T05:31:53;2.73;;;1.60;;
4051;SDS011;2040;50.924;11.604;2022-08-07T05:34:20;2.93;;;1.47;;
4051;SDS011;2040;50.924;11.604;2022-08-07T05:36:50;1.37;;;1.10;;
4051;SDS011;2040;50.924;11.604;2022-08-07T05:39:18;1.43;;;1.10;;
4051;SDS011;2040;50.924;11.604;2022-08-07T05:41:46;2.20;;;1.73;;
4051;SDS011;2040;50.924;11.604;2022-08-07T05:44:14;2.63;;;1.97;;
4051;SDS011;2040;50.924;11.604;2022-08-07T05:46:41;1.60;;;1.50;;
4051;SDS011;2040;50.924;11.604;2022-08-07T05:49:08;1.63;;;1.53;;
4051;SDS011;2040;50.924;11.604;2022-08-07T05:51:35;1.87;;;1.67;;
4051;SDS011;2040;50.924;11.604;2022-08-07T05:54:02;1.70;;;1.60;;
4051;SDS011;2040;50.924;11.604;2022-08-07T05:56:27;2.13;;;1.20;;
4051;SDS011;2040;50.924;11.604;2022-08-07T05:58:55;1.67;;;1.20;;
4051;SDS011;2040;50.924;11.604;2022-08-07T06:01:22;1.50;;;1.40;;
4051;SDS011;2040;50.924;11.604;2022-08-07T06:03:52;1.53;;;1.43;;
4051;SDS011;2040;50.924;11.604;2022-08-07T06:06:18;4.70;;;1.50;;
4051;SDS011;2040;50.924;11.604;2022-08-07T06:08:45;4.93;;;1.63;;
4051;SDS011;2040;50.924;11.604;2022-08-07T06:11:11;1.73;;;1.63;;
4051;SDS011;2040;50.924;11.604;2022-08-07T06:13:38;1.70;;;1.60;;
4051;SDS011;2040;50.924;11.604;2022-08-07T06:16:05;1.40;;;1.30;;
4051;SDS011;2040;50.924;11.604;2022-08-07T06:18:31;1.60;;;1.50;;
4051;SDS011;2040;50.924;11.604;2022-08-07T06:21:01;2.20;;;1.53;;
4051;SDS011;2040;50.924;11.604;2022-08-07T06:23:29;1.60;;;1.40;;
4051;SDS011;2040;50.924;11.604;2022-08-07T06:25:55;1.30;;;1.20;;
4051;SDS011;2040;50.924;11.604;2022-08-07T06:28:22;3.10;;;1.30;;
4051;SDS011;2040;50.924;11.604;2022-08-07T06:30:48;2.40;;;1.20;;
4051;SDS011;2040;50.924;11.604;2022-08-07T06:33:14;1.53;;;1.10;;
4051;SDS011;2040;50.924;11.604;2022-08-07T06:35:39;1.90;;;1.30;;
4051;SDS011;2040;50.924;11.604;2022-08-07T06:38:05;1.23;;;1.07;;
4051;SDS011;2040;50.924;11.604;2022-08-07T06:40:47;2.87;;;1.17;;
4051;SDS011;2040;50.924;11.604;2022-08-07T06:43:15;1.97;;;1.20;;
4051;SDS011;2040;50.924;11.604;2022-08-07T06:45:44;0.90;;;0.90;;
4051;SDS011;2040;50.924;11.604;2022-08-07T06:48:10;2.33;;;1.30;;
4051;SDS011;2040;50.924;11.604;2022-08-07T06:50:36;1.87;;;1.30;;
4051;SDS011;2040;50.924;11.604;2022-08-07T06:53:06;6.10;;;1.10;;
4051;SDS011;2040;50.924;11.604;2022-08-07T06:55:32;1.27;;;1.17;;
4051;SDS011;2040;50.924;11.604;2022-08-07T06:58:00;2.17;;;1.47;;
4051;SDS011;2040;50.924;11.604;2022-08-07T07:00:30;3.07;;;1.37;;
4051;SDS011;2040;50.924;11.604;2022-08-07T07:03:00;1.00;;;0.87;;
4051;SDS011;2040;50.924;11.604;2022-08-07T07:05:27;1.47;;;1.20;;
4051;SDS011;2040;50.924;11.604;2022-08-07T07:07:53;3.93;;;1.10;;
4051;SDS011;2040;50.924;11.604;2022-08-07T07:10:26;2.10;;;1.57;;
4051;SDS011;2040;50.924;11.604;2022-08-07T07:12:54;1.90;;;1.23;;
4051;SDS011;2040;50.924;11.604;2022-08-07T07:15:26;1.27;;;1.17;;
4051;SDS011;2040;50.924;11.604;2022-08-07T07:18:00;3.43;;;1.50;;
4051;SDS011;2040;50.924;11.604;2022-08-07T07:20:36;3.83;;;1.30;;
4051;SDS011;2040;50.924;11.604;2022-08-07T07:23:13;1.33;;;1.23;;
4051;SDS011;2040;50.924;11.604;2022-08-07T07:25:39;1.20;;;1.00;;
4051;SDS011;2040;50.924;11.604;2022-08-07T07:30:37;4.30;;;1.10;;
4051;SDS011;2040;50.924;11.604;2022-08-07T07:33:06;1.23;;;1.07;;
4051;SDS011;2040;50.924;11.604;2022-08-07T07:35:35;5.50;;;1.63;;
4051;SDS011;2040;50.924;11.604;2022-08-07T07:38:01;1.20;;;1.10;;
4051;SDS011;2040;50.924;11.604;2022-08-07T07:40:30;2.77;;;0.90;;
4051;SDS011;2040;50.924;11.604;2022-08-07T07:42:58;3.23;;;1.27;;
4051;SDS011;2040;50.924;11.604;2022-08-07T07:45:27;1.93;;;1.17;;
4051;SDS011;2040;50.924;11.604;2022-08-07T07:47:54;1.10;;;1.03;;
4051;SDS011;2040;50.924;11.604;2022-08-07T07:50:22;1.37;;;1.00;;
4051;SDS011;2040;50.924;11.604;2022-08-07T07:52:49;2.10;;;1.17;;
4051;SDS011;2040;50.924;11.604;2022-08-07T07:55:17;1.57;;;1.13;;
4051;SDS011;2040;50.924;11.604;2022-08-07T07:57:43;1.63;;;1.50;;
4051;SDS011;2040;50.924;11.604;2022-08-07T08:00:11;4.07;;;1.70;;
4051;SDS011;2040;50.924;11.604;2022-08-07T08:02:38;1.53;;;0.83;;
4051;SDS011;2040;50.924;11.604;2022-08-07T08:05:06;1.53;;;0.90;;
4051;SDS011;2040;50.924;11.604;2022-08-07T08:07:33;1.10;;;1.00;;
4051;SDS011;2040;50.924;11.604;2022-08-07T08:10:02;1.13;;;1.07;;
4051;SDS011;2040;50.924;11.604;2022-08-07T08:12:29;4.07;;;1.00;;
4051;SDS011;2040;50.924;11.604;2022-08-07T08:14:56;1.10;;;0.90;;
4051;SDS011;2040;50.924;11.604;2022-08-07T08:17:22;1.23;;;1.00;;
4051;SDS011;2040;50.924;11.604;2022-08-07T08:19:50;5.17;;;1.20;;
4051;SDS011;2040;50.924;11.604;2022-08-07T08:22:18;1.27;;;1.00;;
4051;SDS011;2040;50.924;11.604;2022-08-07T08:25:04;4.33;;;0.90;;
4051;SDS011;2040;50.924;11.604;2022-08-07T08:27:50;1.10;;;0.97;;
4051;SDS011;2040;50.924;11.604;2022-08-07T08:30:19;1.37;;;1.10;;
4051;SDS011;2040;50.924;11.604;2022-08-07T08:32:48;0.80;;;0.80;;
4051;SDS011;2040;50.924;11.604;2022-08-07T08:35:19;2.80;;;1.03;;
4051;SDS011;2040;50.924;11.604;2022-08-07T08:37:48;0.87;;;0.70;;
4051;SDS011;2040;50.924;11.604;2022-08-07T08:40:25;1.07;;;0.87;;
4051;SDS011;2040;50.924;11.604;2022-08-07T08:48:17;1.10;;;0.80;;
4051;SDS011;2040;50.924;11.604;2022-08-07T08:51:03;1.07;;;0.80;;
4051;SDS011;2040;50.924;11.604;2022-08-07T08:53:41;0.80;;;0.70;;
4051;SDS011;2040;50.924;11.604;2022-08-07T08:56:13;1.90;;;0.70;;
4051;SDS011;2040;50.924;11.604;2022-08-07T09:05:08;2.30;;;0.80;;
4051;SDS011;2040;50.924;11.604;2022-08-07T09:07:52;2.33;;;0.67;;
4051;SDS011;2040;50.924;11.604;2022-08-07T09:10:31;1.37;;;0.60;;
4051;SDS011;2040;50.924;11.604;2022-08-07T09:16:14;0.80;;;0.70;;
4051;SDS011;2040;50.924;11.604;2022-08-07T09:30:08;0.70;;;0.70;;
4051;SDS011;2040;50.924;11.604;2022-08-07T09:32:43;1.33;;;0.90;;
4051;SDS011;2040;50.924;11.604;2022-08-07T09:38:11;0.60;;;0.60;;
4051;SDS011;2040;50.924;11.604;2022-08-07T09:46:12;2.73;;;0.60;;
4051;SDS011;2040;50.924;11.604;2022-08-07T09:54:21;0.70;;;0.60;;
4051;SDS011;2040;50.924;11.604;2022-08-07T10:02:26;1.00;;;0.90;;
4051;SDS011;2040;50.924;11.604;2022-08-07T10:16:20;2.10;;;0.73;;
4051;SDS011;2040;50.924;11.604;2022-08-07T10:19:30;4.73;;;1.13;;
4051;SDS011;2040;50.924;11.604;2022-08-07T10:22:26;1.17;;;0.70;;
4051;SDS011;2040;50.924;11.604;2022-08-07T10:25:23;2.07;;;0.77;;
4051;SDS011;2040;50.924;11.604;2022-08-07T10:30:52;2.80;;;0.80;;
4051;SDS011;2040;50.924;11.604;2022-08-07T10:36:22;0.93;;;0.70;;
4051;SDS011;2040;50.924;11.604;2022-08-07T10:39:02;1.00;;;0.90;;
4051;SDS011;2040;50.924;11.604;2022-08-07T10:41:48;1.20;;;0.80;;
4051;SDS011;2040;50.924;11.604;2022-08-07T10:44:22;3.67;;;1.10;;
4051;SDS011;2040;50.924;11.604;2022-08-07T10:46:54;0.80;;;0.70;;
4051;SDS011;2040;50.924;11.604;2022-08-07T10:52:23;2.33;;;0.70;;
4051;SDS011;2040;50.924;11.604;2022-08-07T10:54:58;1.73;;;0.70;;
4051;SDS011;2040;50.924;11.604;2022-08-07T10:57:42;3.27;;;0.90;;
4051;SDS011;2040;50.924;11.604;2022-08-07T11:00:14;1.00;;;0.60;;
4051;SDS011;2040;50.924;11.604;2022-08-07T11:08:36;0.57;;;0.50;;
4051;SDS011;2040;50.924;11.604;2022-08-07T11:16:09;0.63;;;0.63;;
4051;SDS011;2040;50.924;11.604;2022-08-07T11:21:31;1.70;;;0.80;;
4051;SDS011;2040;50.924;11.604;2022-08-07T11:26:48;1.43;;;0.60;;
4051;SDS011;2040;50.924;11.604;2022-08-07T11:32:00;1.40;;;0.90;;
4051;SDS011;2040;50.924;11.604;2022-08-07T11:34:37;1.10;;;0.70;;
4051;SDS011;2040;50.924;11.604;2022-08-07T11:37:18;2.50;;;0.67;;
4051;SDS011;2040;50.924;11.604;2022-08-07T11:40:24;4.63;;;0.77;;
4051;SDS011;2040;50.924;11.604;2022-08-07T11:43:20;0.70;;;0.70;;
4051;SDS011;2040;50.924;11.604;2022-08-07T11:57:02;2.83;;;0.90;;
4051;SDS011;2040;50.924;11.604;2022-08-07T12:00:05;0.80;;;0.60;;
4051;SDS011;2040;50.924;11.604;2022-08-07T12:05:57;2.13;;;0.80;;
4051;SDS011;2040;50.924;11.604;2022-08-07T12:08:24;0.70;;;0.60;;
4051;SDS011;2040;50.924;11.604;2022-08-07T12:10:57;0.77;;;0.77;;
4051;SDS011;2040;50.924;11.604;2022-08-07T12:13:47;1.53;;;0.77;;
4051;SDS011;2040;50.924;11.604;2022-08-07T12:16:21;2.00;;;0.70;;
4051;SDS011;2040;50.924;11.604;2022-08-07T12:26:44;2.50;;;0.80;;
4051;SDS011;2040;50.924;11.604;2022-08-07T12:31:56;2.00;;;0.80;;
4051;SDS011;2040;50.924;11.604;2022-08-07T12:34:32;2.97;;;0.80;;
4051;SDS011;2040;50.924;11.604;2022-08-07T12:37:01;3.50;;;0.80;;
4051;SDS011;2040;50.924;11.604;2022-08-07T12:39:28;1.80;;;0.97;;
4051;SDS011;2040;50.924;11.604;2022-08-07T12:41:56;0.50;;;0.50;;
4051;SDS011;2040;50.924;11.604;2022-08-07T12:44:23;1.53;;;0.70;;
4051;SDS011;2040;50.924;11.604;2022-08-07T12:56:06;0.70;;;0.70;;
4051;SDS011;2040;50.924;11.604;2022-08-07T12:58:49;0.60;;;0.60;;
4051;SDS011;2040;50.924;11.604;2022-08-07T13:04:40;2.63;;;0.70;;
4051;SDS011;2040;50.924;11.604;2022-08-07T13:15:47;3.53;;;1.10;;
4051;SDS011;2040;50.924;11.604;2022-08-07T13:21:25;2.10;;;0.70;;
4051;SDS011;2040;50.924;11.604;2022-08-07T13:24:04;1.07;;;0.80;;
4051;SDS011;2040;50.924;11.604;2022-08-07T13:32:02;0.70;;;0.70;;
4051;SDS011;2040;50.924;11.604;2022-08-07T13:34:36;2.03;;;1.00;;
4051;SDS011;2040;50.924;11.604;2022-08-07T13:42:49;1.30;;;0.90;;
4051;SDS011;2040;50.924;11.604;2022-08-07T13:45:17;1.83;;;0.63;;
4051;SDS011;2040;50.924;11.604;2022-08-07T13:47:44;1.80;;;0.83;;
4051;SDS011;2040;50.924;11.604;2022-08-07T13:50:14;1.00;;;0.80;;
4051;SDS011;2040;50.924;11.604;2022-08-07T13:52:46;2.40;;;0.80;;
4051;SDS011;2040;50.924;11.604;2022-08-07T13:55:16;0.80;;;0.73;;
4051;SDS011;2040;50.924;11.604;2022-08-07T13:57:44;3.43;;;0.90;;
4051;SDS011;2040;50.924;11.604;2022-08-07T14:00:14;1.90;;;1.07;;
4051;SDS011;2040;50.924;11.604;2022-08-07T14:02:40;1.00;;;0.70;;
4051;SDS011;2040;50.924;11.604;2022-08-07T14:05:12;0.93;;;0.70;;
4051;SDS011;2040;50.924;11.604;2022-08-07T14:07:40;0.90;;;0.70;;
4051;SDS011;2040;50.924;11.604;2022-08-07T14:10:07;1.40;;;0.70;;
4051;SDS011;2040;50.924;11.604;2022-08-07T14:15:16;0.80;;;0.80;;
4051;SDS011;2040;50.924;11.604;2022-08-07T14:17:45;0.70;;;0.70;;
4051;SDS011;2040;50.924;11.604;2022-08-07T14:20:15;0.70;;;0.60;;
4051;SDS011;2040;50.924;11.604;2022-08-07T14:23:31;2.27;;;1.00;;
4051;SDS011;2040;50.924;11.604;2022-08-07T14:25:43;0.97;;;0.70;;
4051;SDS011;2040;50.924;11.604;2022-08-07T14:28:13;0.70;;;0.70;;
4051;SDS011;2040;50.924;11.604;2022-08-07T14:30:44;1.00;;;0.80;;
4051;SDS011;2040;50.924;11.604;2022-08-07T14:33:12;0.83;;;0.73;;
4051;SDS011;2040;50.924;11.604;2022-08-07T14:35:39;0.83;;;0.73;;
4051;SDS011;2040;50.924;11.604;2022-08-07T14:38:05;5.07;;;0.90;;
4051;SDS011;2040;50.924;11.604;2022-08-07T14:40:33;1.90;;;0.70;;
4051;SDS011;2040;50.924;11.604;2022-08-07T14:43:01;1.00;;;0.60;;
4051;SDS011;2040;50.924;11.604;2022-08-07T14:45:30;4.63;;;0.80;;
4051;SDS011;2040;50.924;11.604;2022-08-07T14:48:00;1.40;;;0.90;;
4051;SDS011;2040;50.924;11.604;2022-08-07T14:50:28;0.90;;;0.70;;
4051;SDS011;2040;50.924;11.604;2022-08-07T14:52:54;0.60;;;0.60;;
4051;SDS011;2040;50.924;11.604;2022-08-07T14:55:22;0.90;;;0.70;;
4051;SDS011;2040;50.924;11.604;2022-08-07T14:57:55;1.70;;;1.10;;
4051;SDS011;2040;50.924;11.604;2022-08-07T15:00:22;0.90;;;0.70;;
4051;SDS011;2040;50.924;11.604;2022-08-07T15:02:52;1.00;;;0.80;;
4051;SDS011;2040;50.924;11.604;2022-08-07T15:05:20;3.80;;;0.70;;
4051;SDS011;2040;50.924;11.604;2022-08-07T15:07:46;1.10;;;0.90;;
4051;SDS011;2040;50.924;11.604;2022-08-07T15:10:20;4.00;;;1.03;;
4051;SDS011;2040;50.924;11.604;2022-08-07T15:12:51;2.40;;;0.80;;
4051;SDS011;2040;50.924;11.604;2022-08-07T15:15:38;0.57;;;0.50;;
4051;SDS011;2040;50.924;11.604;2022-08-07T15:18:09;6.43;;;0.60;;
4051;SDS011;2040;50.924;11.604;2022-08-07T15:20:38;1.00;;;0.70;;
4051;SDS011;2040;50.924;11.604;2022-08-07T15:23:08;0.60;;;0.60;;
4051;SDS011;2040;50.924;11.604;2022-08-07T15:26:05;2.40;;;0.80;;
4051;SDS011;2040;50.924;11.604;2022-08-07T15:28:32;2.83;;;0.90;;
4051;SDS011;2040;50.924;11.604;2022-08-07T15:31:03;0.93;;;0.63;;
4051;SDS011;2040;50.924;11.604;2022-08-07T15:33:33;1.10;;;0.83;;
4051;SDS011;2040;50.924;11.604;2022-08-07T15:35:59;2.17;;;0.60;;
4051;SDS011;2040;50.924;11.604;2022-08-07T15:38:29;2.73;;;0.90;;
4051;SDS011;2040;50.924;11.604;2022-08-07T15:40:56;0.80;;;0.70;;
4051;SDS011;2040;50.924;11.604;2022-08-07T15:43:25;1.20;;;0.67;;
4051;SDS011;2040;50.924;11.604;2022-08-07T15:45:55;0.70;;;0.60;;
4051;SDS011;2040;50.924;11.604;2022-08-07T15:48:24;0.80;;;0.70;;
4051;SDS011;2040;50.924;11.604;2022-08-07T15:50:54;2.13;;;0.70;;
4051;SDS011;2040;50.924;11.604;2022-08-07T15:56:02;0.93;;;0.80;;
4051;SDS011;2040;50.924;11.604;2022-08-07T15:59:03;1.57;;;0.83;;
4051;SDS011;2040;50.924;11.604;2022-08-07T16:03:55;0.70;;;0.60;;
4051;SDS011;2040;50.924;11.604;2022-08-07T16:06:26;1.30;;;0.80;;
4051;SDS011;2040;50.924;11.604;2022-08-07T16:08:56;4.20;;;0.80;;
4051;SDS011;2040;50.924;11.604;2022-08-07T16:12:08;4.93;;;1.10;;
4051;SDS011;2040;50.924;11.604;2022-08-07T16:14:39;0.70;;;0.70;;
4051;SDS011;2040;50.924;11.604;2022-08-07T16:20:58;0.87;;;0.63;;
4051;SDS011;2040;50.924;11.604;2022-08-07T16:28:55;1.10;;;0.87;;
4051;SDS011;2040;50.924;11.604;2022-08-07T16:31:41;4.00;;;0.70;;
4051;SDS011;2040;50.924;11.604;2022-08-07T16:34:20;0.90;;;0.70;;
4051;SDS011;2040;50.924;11.604;2022-08-07T16:39:27;0.93;;;0.90;;
4051;SDS011;2040;50.924;11.604;2022-08-07T16:42:03;0.90;;;0.70;;
4051;SDS011;2040;50.924;11.604;2022-08-07T16:48:02;4.27;;;0.83;;
4051;SDS011;2040;50.924;11.604;2022-08-07T16:51:02;1.10;;;0.67;;
4051;SDS011;2040;50.924;11.604;2022-08-07T17:01:47;2.23;;;0.90;;
4051;SDS011;2040;50.924;11.604;2022-08-07T17:04:26;2.60;;;0.80;;
4051;SDS011;2040;50.924;11.604;2022-08-07T17:07:19;1.73;;;0.70;;
4051;SDS011;2040;50.924;11.604;2022-08-07T17:09:49;1.23;;;1.13;;
4051;SDS011;2040;50.924;11.604;2022-08-07T17:12:21;0.70;;;0.60;;
4051;SDS011;2040;50.924;11.604;2022-08-07T17:14:55;3.83;;;1.43;;
4051;SDS011;2040;50.924;11.604;2022-08-07T17:17:41;2.30;;;0.70;;
4051;SDS011;2040;50.924;11.604;2022-08-07T17:20:14;2.00;;;0.80;;
4051;SDS011;2040;50.924;11.604;2022-08-07T17:23:22;1.13;;;0.70;;
4051;SDS011;2040;50.924;11.604;2022-08-07T17:31:30;1.90;;;0.90;;
4051;SDS011;2040;50.924;11.604;2022-08-07T17:34:26;1.57;;;0.70;;
4051;SDS011;2040;50.924;11.604;2022-08-07T17:37:00;0.60;;;0.60;;
4051;SDS011;2040;50.924;11.604;2022-08-07T17:39:33;0.80;;;0.70;;
4051;SDS011;2040;50.924;11.604;2022-08-07T17:42:05;0.70;;;0.70;;
4051;SDS011;2040;50.924;11.604;2022-08-07T17:47:11;2.07;;;0.70;;
4051;SDS011;2040;50.924;11.604;2022-08-07T17:49:55;1.17;;;0.67;;
4051;SDS011;2040;50.924;11.604;2022-08-07T17:52:33;4.50;;;1.30;;
4051;SDS011;2040;50.924;11.604;2022-08-07T17:55:07;0.80;;;0.60;;
4051;SDS011;2040;50.924;11.604;2022-08-07T18:00:08;1.73;;;0.80;;
4051;SDS011;2040;50.924;11.604;2022-08-07T18:08:16;0.80;;;0.70;;
4051;SDS011;2040;50.924;11.604;2022-08-07T18:18:12;1.50;;;0.57;;
4051;SDS011;2040;50.924;11.604;2022-08-07T18:20:49;1.67;;;0.70;;
4051;SDS011;2040;50.924;11.604;2022-08-07T18:23:58;0.90;;;0.70;;
4051;SDS011;2040;50.924;11.604;2022-08-07T18:26:17;1.10;;;0.70;;
4051;SDS011;2040;50.924;11.604;2022-08-07T18:28:59;1.23;;;0.70;;
4051;SDS011;2040;50.924;11.604;2022-08-07T18:31:48;1.57;;;0.60;;
4051;SDS011;2040;50.924;11.604;2022-08-07T18:42:59;1.20;;;0.87;;
4051;SDS011;2040;50.924;11.604;2022-08-07T18:45:44;0.70;;;0.60;;
4051;SDS011;2040;50.924;11.604;2022-08-07T18:55:53;1.00;;;0.60;;
4051;SDS011;2040;50.924;11.604;2022-08-07T18:58:32;0.80;;;0.70;;
4051;SDS011;2040;50.924;11.604;2022-08-07T19:01:12;1.63;;;0.80;;
4051;SDS011;2040;50.924;11.604;2022-08-07T19:03:50;0.80;;;0.70;;
4051;SDS011;2040;50.924;11.604;2022-08-07T19:14:43;2.70;;;0.90;;
4051;SDS011;2040;50.924;11.604;2022-08-07T19:17:27;1.23;;;0.63;;